Time;durP1;ratioP1;P1;durP2;ratioP2;P2;SDS_P1;SDS_P2;PMS_P1;PMS_P2;Temp;Humidity;BMP_temperature;BMP_pressure;BME280_temperature;BME280_humidity;BME280_pressure;Samples;Min_cycle;Max_cycle;Signal;HPM_P1;HPM_P2
2022/06/27 00:01:29;;;;;;;7.95;1.98;;;;;;;7.94;100.00;100478.78;4970183;28;20116;-79
2022/06/27 00:03:55;;;;;;;6.78;2.20;;;;;;;7.90;100.00;100472.91;4986443;28;20042;-77
2022/06/27 00:06:21;;;;;;;13.20;2.10;;;;;;;7.88;100.00;100474.91;4949301;28;20039;-78
2022/06/27 00:08:48;;;;;;;10.73;1.83;;;;;;;7.87;100.00;100488.47;4957435;28;20038;-78
2022/06/27 00:11:14;;;;;;;6.85;1.92;;;;;;;7.92;100.00;100494.16;4972139;28;20049;-77
2022/06/27 00:13:40;;;;;;;8.02;2.13;;;;;;;7.94;100.00;100484.13;4967788;28;20514;-77
2022/06/27 00:16:05;;;;;;;6.93;2.35;;;;;;;7.97;100.00;100485.66;4951156;28;20038;-77
2022/06/27 00:18:31;;;;;;;6.80;2.00;;;;;;;8.01;100.00;100495.00;4985025;28;20062;-78
2022/06/27 00:20:57;;;;;;;22.95;3.30;;;;;;;8.07;100.00;100502.38;4983112;28;20034;-77
2022/06/27 00:23:22;;;;;;;3.72;1.80;;;;;;;8.02;100.00;100491.31;4981461;28;20071;-77
2022/06/27 00:25:48;;;;;;;3.70;0.90;;;;;;;8.01;100.00;100497.69;4984454;28;20491;-76
2022/06/27 00:28:13;;;;;;;0.85;0.85;;;;;;;8.02;100.00;100502.88;4963060;28;20034;-76
2022/06/27 00:30:39;;;;;;;0.43;0.43;;;;;;;8.03;100.00;100501.88;4967615;28;20544;-77
2022/06/27 00:33:05;;;;;;;0.40;0.40;;;;;;;7.93;100.00;100503.84;4986269;28;20034;-76
2022/06/27 00:35:30;;;;;;;0.90;0.90;;;;;;;7.70;100.00;100506.34;4957020;28;20045;-76
2022/06/27 00:37:56;;;;;;;2.03;0.95;;;;;;;7.46;100.00;100501.72;4964367;28;20069;-76
2022/06/27 00:40:22;;;;;;;0.47;0.47;;;;;;;7.18;100.00;100491.25;4985179;28;20085;-77
2022/06/27 00:42:47;;;;;;;0.30;0.30;;;;;;;6.87;100.00;100488.25;4953505;28;20034;-76
2022/06/27 00:45:13;;;;;;;0.40;0.40;;;;;;;6.60;100.00;100490.09;4969691;28;20492;-77
2022/06/27 00:47:39;;;;;;;0.40;0.40;;;;;;;6.38;100.00;100494.13;4988969;28;20404;-76
2022/06/27 00:50:06;;;;;;;0.30;0.30;;;;;;;6.38;100.00;100493.28;4970760;28;20030;-75
2022/06/27 00:52:32;;;;;;;0.47;0.47;;;;;;;6.63;100.00;100507.66;4972365;28;20048;-76
2022/06/27 00:54:58;;;;;;;0.30;0.30;;;;;;;6.89;100.00;100502.31;4959148;28;20109;-76
2022/06/27 00:57:24;;;;;;;0.30;0.30;;;;;;;6.95;100.00;100503.50;4985552;28;20034;-78
2022/06/27 00:59:53;;;;;;;0.40;0.40;;;;;;;6.96;100.00;100502.50;4979627;28;20488;-78
2022/06/27 01:02:19;;;;;;;0.30;0.30;;;;;;;6.95;100.00;100501.66;4976347;28;20129;-77
2022/06/27 01:04:44;;;;;;;0.30;0.30;;;;;;;7.01;100.00;100500.19;4989776;28;20168;-76
2022/06/27 01:07:10;;;;;;;0.30;0.30;;;;;;;7.13;100.00;100498.09;4987568;28;20676;-76
2022/06/27 01:09:36;;;;;;;0.30;0.30;;;;;;;7.21;100.00;100504.31;4959811;28;20039;-77
2022/06/27 01:12:03;;;;;;;0.30;0.30;;;;;;;7.36;100.00;100507.22;4987043;28;20034;-75
2022/06/27 01:14:29;;;;;;;0.30;0.30;;;;;;;7.40;100.00;100492.50;4987546;28;20027;-77
2022/06/27 01:16:55;;;;;;;0.30;0.30;;;;;;;7.39;100.00;100498.03;4984598;28;20034;-76
2022/06/27 01:19:20;;;;;;;0.30;0.30;;;;;;;7.28;100.00;100499.16;4954437;28;20045;-76
2022/06/27 01:21:48;;;;;;;0.30;0.30;;;;;;;7.20;100.00;100510.66;4986898;28;20030;-76
2022/06/27 01:24:18;;;;;;;0.30;0.30;;;;;;;7.09;100.00;100507.41;4960537;28;20436;-76
2022/06/27 01:26:44;;;;;;;1.73;1.63;;;;;;;6.98;100.00;100505.84;4957946;28;20030;-76
2022/06/27 01:29:10;;;;;;;0.30;0.30;;;;;;;6.91;100.00;100504.84;4971462;28;20111;-76
2022/06/27 01:31:37;;;;;;;0.30;0.30;;;;;;;6.95;100.00;100503.50;4953920;28;20544;-76
2022/06/27 01:34:03;;;;;;;0.30;0.30;;;;;;;7.00;100.00;100502.03;4982269;28;20058;-76
2022/06/27 01:36:41;;;;;;;0.30;0.30;;;;;;;7.16;100.00;100516.47;4986253;28;20469;-77
2022/06/27 01:39:11;;;;;;;0.30;0.30;;;;;;;7.35;100.00;100521.56;4984118;28;20034;-77
2022/06/27 01:41:39;;;;;;;0.30;0.30;;;;;;;7.47;100.00;100514.94;4967994;28;20037;-76
2022/06/27 01:44:04;;;;;;;0.30;0.30;;;;;;;7.51;100.00;100514.63;4988082;28;20115;-76
2022/06/27 01:46:52;;;;;;;0.30;0.30;;;;;;;7.42;100.00;100513.75;4969851;28;20152;-76
2022/06/27 01:49:18;;;;;;;0.30;0.30;;;;;;;7.31;100.00;100514.06;4958911;28;20135;-76
2022/06/27 01:51:48;;;;;;;0.40;0.40;;;;;;;7.28;100.00;100515.22;4974949;28;20031;-76
2022/06/27 01:54:15;;;;;;;0.30;0.30;;;;;;;7.32;100.00;100521.91;4966805;28;20118;-76
2022/06/27 01:56:42;;;;;;;0.30;0.30;;;;;;;7.28;100.00;100509.88;4980941;28;20093;-76
2022/06/27 01:59:08;;;;;;;0.30;0.30;;;;;;;7.34;100.00;100527.94;4989591;28;20064;-76
2022/06/27 02:01:35;;;;;;;0.30;0.30;;;;;;;7.42;100.00;100533.31;4983712;28;20034;-76
2022/06/27 02:04:01;;;;;;;0.30;0.30;;;;;;;7.58;100.00;100529.88;4958598;28;20041;-75
2022/06/27 02:06:28;;;;;;;0.30;0.30;;;;;;;7.62;100.00;100541.06;4953484;28;20046;-76
2022/06/27 02:08:55;;;;;;;0.30;0.30;;;;;;;7.62;100.00;100525.03;4955030;28;20065;-76
2022/06/27 02:11:21;;;;;;;0.30;0.30;;;;;;;7.59;100.00;100523.50;4969139;28;20061;-75
2022/06/27 02:13:47;;;;;;;0.30;0.30;;;;;;;7.57;100.00;100530.88;4966997;28;20481;-75
2022/06/27 02:16:18;;;;;;;0.30;0.30;;;;;;;7.54;100.00;100530.34;4966038;28;20605;-76
2022/06/27 02:18:44;;;;;;;0.30;0.30;;;;;;;7.57;100.00;100530.00;4969262;28;20041;-75
2022/06/27 02:21:11;;;;;;;0.30;0.30;;;;;;;7.61;100.00;100526.03;4969594;28;20045;-76
2022/06/27 02:23:37;;;;;;;0.30;0.30;;;;;;;7.64;100.00;100515.81;4988224;28;20114;-76
2022/06/27 02:26:07;;;;;;;0.30;0.30;;;;;;;7.65;100.00;100514.84;4988870;28;20038;-75
2022/06/27 02:28:34;;;;;;;0.30;0.30;;;;;;;7.48;100.00;100494.38;4989276;28;20034;-77
2022/06/27 02:31:00;;;;;;;0.30;0.30;;;;;;;7.59;100.00;100522.66;4986101;28;20146;-76
2022/06/27 02:33:43;;;;;;;0.30;0.30;;;;;;;7.45;100.00;100516.94;4986533;28;20026;-76
2022/06/27 02:36:18;;;;;;;0.50;0.50;;;;;;;7.24;100.00;100530.72;4988971;28;20097;-76
2022/06/27 02:38:45;;;;;;;0.30;0.30;;;;;;;7.07;100.00;100528.97;4950614;28;20069;-75
2022/06/27 02:41:14;;;;;;;0.30;0.30;;;;;;;6.85;100.00;100526.81;4971224;28;20034;-77
2022/06/27 02:43:42;;;;;;;0.30;0.30;;;;;;;6.63;100.00;100533.53;4957207;28;20046;-76
2022/06/27 02:46:08;;;;;;;0.30;0.30;;;;;;;6.57;100.00;100538.50;4988927;28;20045;-76
2022/06/27 02:48:36;;;;;;;0.35;0.35;;;;;;;6.53;100.00;100539.78;4964320;28;20046;-77
2022/06/27 02:51:05;;;;;;;0.40;0.40;;;;;;;6.47;100.00;100532.41;4982994;28;20038;-75
2022/06/27 02:53:42;;;;;;;0.30;0.30;;;;;;;6.40;100.00;100536.69;4971462;28;20042;-75
2022/06/27 02:56:09;;;;;;;0.30;0.30;;;;;;;6.38;100.00;100539.50;4964322;28;20038;-75
2022/06/27 02:58:47;;;;;;;0.30;0.30;;;;;;;6.15;100.00;100531.13;4981777;28;20076;-75
2022/06/27 03:01:14;;;;;;;0.30;0.30;;;;;;;6.06;100.00;100541.88;4997449;28;20028;-75
2022/06/27 03:03:41;;;;;;;0.30;0.30;;;;;;;5.98;100.00;100531.97;4972425;28;20083;-77
2022/06/27 03:06:11;;;;;;;0.40;0.40;;;;;;;5.95;100.00;100542.94;4984576;28;20113;-78
2022/06/27 03:08:42;;;;;;;0.30;0.30;;;;;;;5.89;100.00;100535.50;4987322;28;20036;-77
2022/06/27 03:11:10;;;;;;;0.35;0.35;;;;;;;5.91;100.00;100534.38;4984319;28;20030;-77
2022/06/27 03:13:35;;;;;;;0.30;0.30;;;;;;;5.93;100.00;100532.44;4956849;28;20046;-76
2022/06/27 03:16:01;;;;;;;0.30;0.30;;;;;;;5.94;100.00;100528.75;4970874;28;20069;-75
2022/06/27 03:18:27;;;;;;;0.38;0.38;;;;;;;5.81;100.00;100530.09;4956922;28;20041;-77
2022/06/27 03:20:53;;;;;;;0.35;0.35;;;;;;;5.60;100.00;100517.84;4971474;28;20100;-76
2022/06/27 03:23:19;;;;;;;0.30;0.30;;;;;;;5.55;100.00;100533.47;4973390;28;20038;-76
2022/06/27 03:25:45;;;;;;;0.30;0.30;;;;;;;5.50;100.00;100533.06;4951905;28;20042;-77
2022/06/27 03:28:11;;;;;;;0.40;0.40;;;;;;;5.45;100.00;100533.53;4970640;28;20037;-76
2022/06/27 03:30:37;;;;;;;0.40;0.40;;;;;;;5.55;100.00;100540.63;4951576;28;20488;-77
2022/06/27 03:33:03;;;;;;;0.40;0.40;;;;;;;5.73;100.00;100537.00;4949434;28;20081;-76
2022/06/27 03:35:28;;;;;;;0.40;0.40;;;;;;;5.86;100.00;100538.47;4988413;28;20408;-77
2022/06/27 03:37:56;;;;;;;0.40;0.40;;;;;;;5.96;100.00;100541.97;4952491;28;20229;-76
2022/06/27 03:40:21;;;;;;;0.30;0.30;;;;;;;6.04;100.00;100539.38;4972692;28;20046;-77
2022/06/27 03:42:47;;;;;;;0.38;0.38;;;;;;;6.42;100.00;100549.88;4971296;28;20030;-76
2022/06/27 03:45:12;;;;;;;0.30;0.30;;;;;;;6.62;100.00;100551.41;4998766;28;20030;-76
2022/06/27 03:47:50;;;;;;;0.30;0.30;;;;;;;6.71;100.00;100546.94;4984231;28;20420;-77
2022/06/27 03:50:19;;;;;;;0.30;0.30;;;;;;;6.72;100.00;100545.94;4966589;28;20120;-77
2022/06/27 03:52:45;;;;;;;0.30;0.30;;;;;;;6.71;100.00;100538.94;4968494;28;20037;-76
2022/06/27 03:55:11;;;;;;;0.30;0.30;;;;;;;6.70;100.00;100545.28;4987099;28;20030;-76
2022/06/27 03:57:37;;;;;;;0.40;0.40;;;;;;;6.66;100.00;100547.41;4973042;28;20034;-77
2022/06/27 04:00:04;;;;;;;0.30;0.30;;;;;;;6.58;100.00;100553.53;4954022;28;20286;-77
2022/06/27 04:02:30;;;;;;;0.40;0.40;;;;;;;6.51;100.00;100552.47;4981435;28;20116;-76
2022/06/27 04:04:56;;;;;;;0.40;0.40;;;;;;;6.46;100.00;100559.28;4950505;28;20082;-76
2022/06/27 04:07:21;;;;;;;0.32;0.32;;;;;;;6.34;100.00;100561.34;4970791;28;20096;-76
2022/06/27 04:09:47;;;;;;;0.40;0.40;;;;;;;6.25;100.00;100571.09;4971161;28;20045;-76
2022/06/27 04:12:13;;;;;;;0.30;0.30;;;;;;;6.20;100.00;100576.06;4973478;28;20113;-77
2022/06/27 04:14:38;;;;;;;0.30;0.30;;;;;;;6.18;100.00;100577.19;4953467;28;20049;-76
2022/06/27 04:17:04;;;;;;;0.30;0.30;;;;;;;6.24;100.00;100579.25;4984591;28;20045;-76
2022/06/27 04:19:29;;;;;;;0.40;0.40;;;;;;;6.26;100.00;100578.13;4985854;28;20034;-76
2022/06/27 04:21:55;;;;;;;0.30;0.30;;;;;;;6.25;100.00;100578.28;4967494;28;20469;-77
2022/06/27 04:24:21;;;;;;;0.40;0.40;;;;;;;6.14;100.00;100582.03;4967318;28;20042;-76
2022/06/27 04:26:46;;;;;;;0.30;0.30;;;;;;;5.95;100.00;100577.63;4988381;28;20376;-76
2022/06/27 04:29:12;;;;;;;0.40;0.40;;;;;;;5.83;100.00;100576.97;4969789;28;20109;-76
2022/06/27 04:31:38;;;;;;;0.30;0.30;;;;;;;5.70;100.00;100582.66;4984556;28;20468;-76
2022/06/27 04:34:13;;;;;;;0.32;0.32;;;;;;;5.63;100.00;100578.91;4980682;28;20042;-76
2022/06/27 04:36:41;;;;;;;0.40;0.40;;;;;;;5.60;100.00;100578.34;4987435;28;20534;-76
2022/06/27 04:39:08;;;;;;;0.40;0.40;;;;;;;5.48;100.00;100583.06;4988579;28;20038;-76
2022/06/27 04:41:33;;;;;;;0.40;0.40;;;;;;;5.52;100.00;100589.75;4971369;28;20052;-76
2022/06/27 04:43:59;;;;;;;0.40;0.40;;;;;;;5.44;100.00;100581.66;4990283;28;20468;-77
2022/06/27 04:46:25;;;;;;;0.30;0.30;;;;;;;5.41;100.00;100577.47;4984787;28;20100;-76
2022/06/27 04:48:51;;;;;;;0.30;0.30;;;;;;;5.40;100.00;100574.94;4978253;28;20077;-76
2022/06/27 04:51:17;;;;;;;0.40;0.40;;;;;;;5.49;100.00;100584.72;4987000;28;20066;-76
2022/06/27 04:53:44;;;;;;;0.40;0.40;;;;;;;5.55;100.00;100583.28;4967834;28;20073;-76
2022/06/27 04:56:11;;;;;;;0.40;0.40;;;;;;;5.69;100.00;100588.16;4985940;28;20038;-77
2022/06/27 04:58:37;;;;;;;0.40;0.40;;;;;;;5.94;100.00;100584.78;4983863;28;20034;-76
2022/06/27 05:01:03;;;;;;;0.40;0.40;;;;;;;6.27;100.00;100589.63;4976166;28;20092;-76
2022/06/27 05:03:28;;;;;;;0.50;0.50;;;;;;;7.12;100.00;100589.97;4967062;28;20569;-76
2022/06/27 05:05:54;;;;;;;0.50;0.50;;;;;;;8.10;100.00;100593.09;4956967;28;20491;-77
2022/06/27 05:08:20;;;;;;;0.40;0.40;;;;;;;8.98;100.00;100597.88;4971573;28;20128;-78
2022/06/27 05:10:47;;;;;;;0.40;0.40;;;;;;;9.88;100.00;100594.94;4989876;28;20023;-76
2022/06/27 05:13:13;;;;;;;0.40;0.40;;;;;;;10.53;100.00;100602.63;4964610;28;20038;-76
2022/06/27 05:15:39;;;;;;;0.40;0.40;;;;;;;10.90;100.00;100609.06;4985931;28;20027;-75
2022/06/27 05:18:05;;;;;;;0.40;0.40;;;;;;;11.03;100.00;100607.59;4969106;28;20481;-75
2022/06/27 05:20:30;;;;;;;0.40;0.40;;;;;;;10.92;100.00;100607.00;4982775;28;20061;-76
2022/06/27 05:22:57;;;;;;;0.30;0.30;;;;;;;10.15;100.00;100615.09;4968370;28;20448;-77
2022/06/27 05:25:23;;;;;;;0.30;0.30;;;;;;;9.58;100.00;100618.03;4971388;28;20035;-77
2022/06/27 05:27:49;;;;;;;0.30;0.30;;;;;;;9.15;100.00;100634.38;4953896;28;20491;-77
2022/06/27 05:30:15;;;;;;;0.40;0.40;;;;;;;8.85;100.00;100624.38;4955892;28;20031;-77
2022/06/27 05:32:41;;;;;;;0.30;0.30;;;;;;;8.69;100.00;100625.19;4957921;28;20160;-77
2022/06/27 05:35:08;;;;;;;0.30;0.30;;;;;;;8.59;100.00;100628.03;4977394;28;20030;-76
2022/06/27 05:37:35;;;;;;;0.30;0.30;;;;;;;8.45;100.00;100626.84;4955060;28;20034;-77
2022/06/27 05:40:02;;;;;;;0.30;0.30;;;;;;;8.31;100.00;100625.63;4990022;28;20476;-77
2022/06/27 05:42:28;;;;;;;0.40;0.40;;;;;;;8.20;100.00;100627.75;4972857;28;20034;-75
2022/06/27 05:44:55;;;;;;;0.40;0.40;;;;;;;8.09;100.00;100627.06;4988024;28;20085;-76
2022/06/27 05:47:21;;;;;;;0.40;0.40;;;;;;;8.06;100.00;100631.91;4985798;28;20038;-75
2022/06/27 05:49:48;;;;;;;0.40;0.40;;;;;;;7.98;100.00;100630.03;4990889;28;20529;-76
2022/06/27 05:52:14;;;;;;;0.40;0.40;;;;;;;8.08;100.00;100629.91;4990235;28;20038;-76
2022/06/27 05:54:48;;;;;;;0.35;0.35;;;;;;;7.99;100.00;100639.78;4983554;28;20461;-77
2022/06/27 05:57:14;;;;;;;;;;;;;;;8.38;100.00;100637.34;4967368;28;20041;-76
2022/06/27 05:59:41;;;;;;;0.50;0.50;;;;;;;10.18;100.00;100641.59;4967887;28;19984;-76
2022/06/27 06:02:07;;;;;;;0.50;0.50;;;;;;;11.63;100.00;100642.47;4976242;28;20026;-76
2022/06/27 06:04:33;;;;;;;0.40;0.40;;;;;;;12.51;98.40;100637.13;4986493;28;20029;-77
2022/06/27 06:07:00;;;;;;;0.50;0.50;;;;;;;12.57;97.85;100644.47;4993865;28;20034;-76
2022/06/27 06:09:27;;;;;;;0.50;0.50;;;;;;;12.83;96.46;100643.88;4970756;28;20034;-76
2022/06/27 06:11:53;;;;;;;0.40;0.40;;;;;;;13.43;92.77;100649.81;4964506;28;20537;-77
2022/06/27 06:14:21;;;;;;;0.50;0.50;;;;;;;13.78;90.61;100647.13;4981955;28;20125;-76
2022/06/27 06:16:48;;;;;;;0.50;0.50;;;;;;;14.10;89.74;100644.78;4964863;28;20176;-76
2022/06/27 06:19:14;;;;;;;0.50;0.50;;;;;;;14.41;87.88;100652.38;4977056;28;20443;-76
2022/06/27 06:21:40;;;;;;;0.50;0.50;;;;;;;14.77;87.84;100654.78;4963523;28;20059;-77
2022/06/27 06:24:06;;;;;;;0.50;0.50;;;;;;;15.06;85.82;100644.63;4945203;28;20050;-76
2022/06/27 06:26:33;;;;;;;0.50;0.50;;;;;;;15.30;84.53;100643.97;4961236;28;20492;-76
2022/06/27 06:29:05;;;;;;;0.50;0.50;;;;;;;15.44;84.00;100638.53;4978287;28;20042;-76
2022/06/27 06:31:32;;;;;;;0.50;0.50;;;;;;;15.72;82.79;100641.03;4952099;28;20138;-77
2022/06/27 06:33:57;;;;;;;0.40;0.40;;;;;;;15.96;82.87;100632.19;4977196;28;20916;-76
2022/06/27 06:36:24;;;;;;;0.60;0.60;;;;;;;16.33;82.84;100647.91;4984526;28;20045;-76
2022/06/27 06:38:53;;;;;;;0.50;0.50;;;;;;;16.64;80.60;100657.91;4985415;28;20030;-75
2022/06/27 06:41:19;;;;;;;0.40;0.40;;;;;;;16.80;80.63;100660.13;4970893;28;20030;-75
2022/06/27 06:43:48;;;;;;;0.40;0.40;;;;;;;17.21;80.18;100664.25;4980636;28;20038;-76
2022/06/27 06:46:17;;;;;;;0.50;0.50;;;;;;;17.64;78.72;100674.28;4974817;28;20065;-76
2022/06/27 06:48:42;;;;;;;0.50;0.50;;;;;;;17.92;77.02;100665.66;4969460;28;20492;-76
2022/06/27 06:51:08;;;;;;;0.50;0.50;;;;;;;18.13;77.08;100671.72;4979989;28;20034;-76
2022/06/27 06:53:36;;;;;;;0.50;0.50;;;;;;;18.76;77.09;100671.31;4953941;28;20050;-76
2022/06/27 06:56:03;;;;;;;0.50;0.50;;;;;;;18.43;79.02;100672.56;4952842;28;20512;-76
2022/06/27 06:58:29;;;;;;;0.50;0.50;;;;;;;18.02;79.43;100679.56;4980863;28;20476;-76
2022/06/27 07:00:56;;;;;;;0.40;0.40;;;;;;;16.64;84.50;100666.06;4970163;28;20134;-76
2022/06/27 07:03:25;;;;;;;0.40;0.40;;;;;;;15.71;89.37;100670.00;4981669;28;20077;-76
2022/06/27 07:05:56;;;;;;;0.40;0.40;;;;;;;14.91;91.57;100678.13;4995341;28;20053;-76
2022/06/27 07:08:23;;;;;;;0.45;0.45;;;;;;;14.88;93.82;100681.25;4978087;28;20037;-76
2022/06/27 07:10:49;;;;;;;0.40;0.40;;;;;;;15.25;92.36;100681.69;4964745;28;20026;-76
2022/06/27 07:13:15;;;;;;;0.50;0.50;;;;;;;15.55;91.76;100682.06;4981474;28;20089;-77
2022/06/27 07:15:43;;;;;;;0.50;0.50;;;;;;;15.18;95.00;100686.25;4967148;28;20031;-76
2022/06/27 07:18:09;;;;;;;0.45;0.45;;;;;;;14.90;95.41;100684.59;4985891;28;20041;-76
2022/06/27 07:20:35;;;;;;;0.40;0.40;;;;;;;14.28;95.65;100642.34;4981591;28;20038;-76
2022/06/27 07:23:01;;;;;;;0.50;0.50;;;;;;;14.13;98.64;100690.31;4953646;28;20116;-76
2022/06/27 07:25:26;;;;;;;0.40;0.40;;;;;;;14.20;98.76;100694.72;4983948;28;20081;-76
2022/06/27 07:27:53;;;;;;;0.50;0.50;;;;;;;14.27;99.15;100692.91;4989255;28;20042;-75
2022/06/27 07:30:20;;;;;;;0.40;0.40;;;;;;;14.57;98.95;100700.75;4969533;28;20038;-76
2022/06/27 07:32:48;;;;;;;0.75;0.75;;;;;;;14.81;96.03;100703.91;4953245;28;20046;-76
2022/06/27 07:35:16;;;;;;;1.67;1.17;;;;;;;14.71;98.57;100701.59;4985726;28;20092;-76
2022/06/27 07:37:49;;;;;;;6.50;1.10;;;;;;;14.82;96.00;100684.78;4986090;28;20045;-77
2022/06/27 07:40:23;;;;;;;3.70;1.27;;;;;;;15.46;94.65;100709.63;4968689;28;20034;-77
2022/06/27 07:42:50;;;;;;;6.68;2.03;;;;;;;15.69;93.31;100701.06;4953362;28;20058;-77
2022/06/27 07:45:18;;;;;;;3.08;1.20;;;;;;;15.26;95.07;100709.59;4988053;28;20038;-77
2022/06/27 07:47:44;;;;;;;5.30;1.38;;;;;;;15.34;95.29;100710.22;4970193;28;20515;-77
2022/06/27 07:50:11;;;;;;;6.65;1.90;;;;;;;15.47;95.48;100708.56;4970851;28;20104;-75
2022/06/27 07:55:24;;;;;;;4.95;1.30;;;;;;;15.36;96.26;100710.84;4966455;28;20081;-76
2022/06/27 07:57:52;;;;;;;6.40;2.15;;;;;;;14.58;97.42;100709.69;4960371;28;20097;-75
2022/06/27 08:00:19;;;;;;;3.47;1.60;;;;;;;15.53;94.52;100715.84;4952722;28;20077;-77
2022/06/27 08:02:47;;;;;;;2.88;1.23;;;;;;;18.55;79.27;100718.94;4968364;28;20380;-78
2022/06/27 08:05:13;;;;;;;6.57;2.03;;;;;;;20.44;73.39;100711.78;4953661;28;20069;-78
2022/06/27 08:07:39;;;;;;;5.40;1.60;;;;;;;19.76;74.84;100716.88;4979061;28;20035;-78
2022/06/27 08:10:05;;;;;;;6.07;1.45;;;;;;;17.92;83.25;100720.06;4984091;28;20533;-78
2022/06/27 08:12:32;;;;;;;4.00;1.20;;;;;;;16.79;84.88;100703.81;4953642;28;20045;-77
2022/06/27 08:14:59;;;;;;;6.38;1.10;;;;;;;16.51;85.08;100713.09;4948858;28;20046;-79
2022/06/27 08:17:25;;;;;;;4.22;1.55;;;;;;;18.04;79.80;100725.59;4980547;28;20054;-75
2022/06/27 08:19:51;;;;;;;1.98;1.00;;;;;;;18.74;74.38;100716.16;4971085;28;20038;-77
2022/06/27 08:22:17;;;;;;;2.05;1.20;;;;;;;19.74;70.75;100716.28;4984607;28;20034;-76
2022/06/27 08:24:44;;;;;;;2.20;1.17;;;;;;;20.67;66.53;100713.63;4988410;28;20535;-76
2022/06/27 08:27:10;;;;;;;7.03;1.50;;;;;;;21.01;65.19;100721.88;4951029;28;20089;-78
2022/06/27 08:29:36;;;;;;;8.18;2.17;;;;;;;21.02;64.72;100726.31;4988285;28;20030;-78
2022/06/27 08:32:02;;;;;;;4.63;1.55;;;;;;;21.30;64.43;100733.59;4968668;28;20038;-78
2022/06/27 08:34:27;;;;;;;5.20;1.25;;;;;;;21.62;63.50;100733.91;4969040;28;20503;-79
2022/06/27 08:36:54;;;;;;;1.30;1.08;;;;;;;21.72;62.12;100733.22;4985401;28;20388;-79
2022/06/27 08:39:20;;;;;;;4.07;1.45;;;;;;;21.60;62.09;100736.06;4953425;28;20058;-78
2022/06/27 08:41:47;;;;;;;11.90;2.08;;;;;;;21.50;60.77;100701.16;4955804;28;20544;-80
2022/06/27 08:44:13;;;;;;;3.72;1.80;;;;;;;21.89;61.87;100731.31;4968826;28;20038;-79
2022/06/27 08:46:40;;;;;;;3.63;1.25;;;;;;;21.14;62.48;100732.50;4980950;28;20045;-78
2022/06/27 08:49:08;;;;;;;3.17;1.55;;;;;;;21.64;62.00;100720.78;4982993;28;20034;-79
2022/06/27 08:51:34;;;;;;;6.18;1.83;;;;;;;20.65;63.60;100707.56;4970018;28;20030;-78
2022/06/27 08:54:01;;;;;;;5.32;1.42;;;;;;;20.12;67.44;100676.72;4969398;28;20085;-78
2022/06/27 08:56:29;;;;;;;4.22;1.60;;;;;;;20.41;64.46;100707.63;4988101;28;20038;-78
2022/06/27 08:58:58;;;;;;;7.78;2.60;;;;;;;21.28;57.11;100711.16;4984786;28;20058;-78
2022/06/27 09:01:27;;;;;;;4.72;1.40;;;;;;;22.32;57.04;100713.28;4985854;28;20039;-85
2022/06/27 09:04:10;;;;;;;6.05;1.70;;;;;;;22.76;52.78;100706.94;4968153;28;20034;-88
2022/06/27 09:06:42;;;;;;;2.63;1.30;;;;;;;23.44;48.50;100701.81;4988429;28;20043;-83
2022/06/27 09:09:08;;;;;;;3.63;1.20;;;;;;;21.64;46.22;100707.09;4992681;28;20034;-84
2022/06/27 09:11:37;;;;;;;6.80;1.70;;;;;;;21.66;46.06;100698.66;4968773;28;20023;-87
2022/06/27 09:14:05;;;;;;;1.42;1.13;;;;;;;23.66;42.36;100707.19;4976137;28;20472;-85
2022/06/27 09:16:31;;;;;;;5.38;1.30;;;;;;;23.90;40.56;100704.91;4980194;28;20127;-83
2022/06/27 09:18:58;;;;;;;4.10;1.40;;;;;;;22.04;44.05;100727.09;4991711;28;20042;-84
2022/06/27 09:21:25;;;;;;;3.42;1.20;;;;;;;20.55;46.56;100716.41;4989373;28;20427;-83
2022/06/27 09:24:00;;;;;;;7.07;1.90;;;;;;;19.81;49.47;100709.88;4975804;28;20263;-83
2022/06/27 09:26:31;;;;;;;4.20;1.25;;;;;;;21.51;45.06;100711.03;4975379;28;20125;-83
2022/06/27 09:29:07;;;;;;;6.57;1.73;;;;;;;22.35;43.27;100720.97;4990077;28;20092;-81
2022/06/27 09:31:35;;;;;;;4.05;1.20;;;;;;;22.92;42.70;100716.16;4973426;28;20122;-84
2022/06/27 09:34:09;;;;;;;3.78;1.30;;;;;;;21.75;43.23;100699.88;4971158;28;20026;-84
2022/06/27 09:36:39;;;;;;;2.22;0.95;;;;;;;20.34;45.79;100700.66;4993095;28;20096;-82
2022/06/27 09:39:07;;;;;;;5.10;1.40;;;;;;;19.23;49.38;100695.94;4975833;28;20034;-80
2022/06/27 09:41:34;;;;;;;4.88;1.17;;;;;;;18.19;53.23;100706.16;4965570;28;20050;-83
2022/06/27 09:44:10;;;;;;;4.10;1.10;;;;;;;17.25;57.07;100702.66;4970354;28;20057;-82
2022/06/27 09:46:38;;;;;;;7.55;1.67;;;;;;;16.53;60.67;100705.59;4972862;28;20034;-87
2022/06/27 09:49:06;;;;;;;4.40;1.88;;;;;;;15.86;60.94;100715.03;4972834;28;20037;-83
2022/06/27 09:51:34;;;;;;;8.10;4.43;;;;;;;15.18;62.61;100719.59;4953426;28;20061;-82
2022/06/27 09:54:08;;;;;;;4.43;2.35;;;;;;;14.75;63.99;100721.00;4984751;28;20031;-84
2022/06/27 09:56:42;;;;;;;7.03;2.20;;;;;;;14.48;66.26;100724.41;4987469;28;20069;-83
2022/06/27 09:59:10;;;;;;;4.30;1.60;;;;;;;14.83;65.26;100726.22;4962318;28;20065;-83
2022/06/27 10:01:37;;;;;;;5.15;1.00;;;;;;;15.57;62.75;100725.25;4970866;28;20112;-83
2022/06/27 10:04:04;;;;;;;2.03;1.20;;;;;;;17.31;56.00;100723.53;4979289;28;20121;-84
2022/06/27 10:06:30;;;;;;;4.60;1.63;;;;;;;19.29;49.57;100716.81;4989739;28;20494;-83
2022/06/27 10:09:08;;;;;;;3.83;1.40;;;;;;;21.10;45.27;100703.19;4989498;28;20361;-81
2022/06/27 10:11:41;;;;;;;3.00;1.30;;;;;;;20.74;44.39;100686.16;4975069;28;20045;-84
2022/06/27 10:14:23;;;;;;;4.88;1.00;;;;;;;20.36;45.23;100668.47;4953456;28;20109;-86
2022/06/27 10:16:52;;;;;;;3.40;1.35;;;;;;;19.86;47.71;100685.44;4969625;28;20046;-84
2022/06/27 10:19:18;;;;;;;1.63;1.00;;;;;;;19.30;47.95;100687.66;4987770;28;20047;-82
2022/06/27 10:21:56;;;;;;;3.28;1.20;;;;;;;19.89;47.05;100695.88;4992778;28;20123;-80
2022/06/27 10:24:40;;;;;;;4.05;1.50;;;;;;;20.28;46.76;100701.63;4951224;28;20041;-83
2022/06/27 10:27:06;;;;;;;3.90;1.50;;;;;;;20.69;45.04;100691.53;4972774;28;20030;-80
2022/06/27 10:29:33;;;;;;;2.35;1.35;;;;;;;20.85;44.23;100677.06;4986084;28;20077;-83
2022/06/27 10:32:01;;;;;;;3.85;1.35;;;;;;;20.82;44.93;100693.94;4965252;28;20048;-81
2022/06/27 10:34:39;;;;;;;3.70;1.35;;;;;;;20.55;43.12;100671.88;4968088;28;20123;-82
2022/06/27 10:37:21;;;;;;;3.72;1.27;;;;;;;19.84;45.02;100691.13;4975676;28;20046;-82
2022/06/27 10:39:51;;;;;;;4.50;1.20;;;;;;;19.51;47.18;100688.97;4984340;28;20121;-85
2022/06/27 10:42:46;;;;;;;2.33;1.13;;;;;;;19.77;46.46;100684.97;4988608;28;20365;-82
2022/06/27 10:45:20;;;;;;;2.60;1.20;;;;;;;19.84;44.72;100684.84;4964955;28;20054;-83
2022/06/27 10:47:53;;;;;;;4.20;1.40;;;;;;;19.75;44.83;100681.66;4986640;28;20030;-82
2022/06/27 10:50:33;;;;;;;5.47;1.27;;;;;;;19.86;44.90;100694.44;4982232;28;20033;-82
2022/06/27 10:53:32;;;;;;;2.78;1.30;;;;;;;20.02;45.27;100668.31;4966807;28;20046;-82
2022/06/27 10:56:55;;;;;;;1.83;1.00;;;;;;;19.64;45.10;100644.28;4971263;28;20493;-83
2022/06/27 10:59:21;;;;;;;5.13;1.42;;;;;;;19.50;45.65;100684.56;4969074;28;20042;-88
2022/06/27 11:01:50;;;;;;;4.65;1.35;;;;;;;19.12;46.44;100685.84;4969294;28;20081;-85
2022/06/27 11:04:25;;;;;;;2.55;1.45;;;;;;;18.96;46.40;100691.97;4968442;28;20034;-83
2022/06/27 11:06:59;;;;;;;6.80;1.35;;;;;;;19.09;46.92;100681.69;4955657;28;20046;-85
2022/06/27 11:09:49;;;;;;;3.42;1.27;;;;;;;19.00;48.06;100665.91;4986233;28;20026;-82
2022/06/27 11:12:18;;;;;;;2.30;1.30;;;;;;;19.03;47.17;100665.47;4953465;28;20061;-83
2022/06/27 11:14:59;;;;;;;5.22;1.42;;;;;;;18.98;47.11;100685.22;4951987;28;20141;-82
2022/06/27 11:17:28;;;;;;;5.22;1.48;;;;;;;19.02;47.96;100686.41;4948635;28;20088;-81
2022/06/27 11:20:13;;;;;;;5.03;1.30;;;;;;;19.61;46.64;100678.31;4983635;28;20093;-82
2022/06/27 11:22:46;;;;;;;3.83;1.08;;;;;;;19.51;45.26;100664.44;4985374;28;20113;-83
2022/06/27 11:25:12;;;;;;;4.25;1.40;;;;;;;19.24;45.88;100653.19;4983572;28;20065;-77
2022/06/27 11:27:46;;;;;;;3.63;1.20;;;;;;;19.07;47.00;100667.47;4985975;28;20377;-88
2022/06/27 11:32:56;;;;;;;7.95;1.85;;;;;;;19.16;47.70;100667.97;4986569;28;20058;-84
2022/06/27 11:35:22;;;;;;;5.32;1.83;;;;;;;19.25;47.92;100669.28;4970580;28;20663;-83